Ivory Coast — WDC4732 — position and weather

sailwx.info

Track history (hours):
 
Tides and Currents Weather Stations Pressure Air Temp Water Temp Dewpoint Dewpoint Depression Visibility Wind Speed Wind Dir Waves Ship Positions

Ivory Coast

Owner: Dann Marine Towing, LC, Chesapeake City, MD. More information available from US FCC via Universal Licensing System and Coast Guard Vessel Documentation Center.

Last reported at 2018-Jun-20 16:22 UTC. Time now 2018-Jun-20 16:58 UTC.
Position N 40°38' W 074°07'.

Length 33 m; draft 5 m.

Type: Tug. MMSI: 367029690.

Date/timePositionNaut miles runAvg speedWind from/ knotsBaromVisibWave heightAir tempDewpointWater temp
2018-Jun-20 16:22N 40°38' W 074°07'1 4.0
2018-Jun-20 16:00N 40°39' W 074°05'1 1.2
2018-Jun-20 15:30N 40°39' W 074°06'2 4.1
2018-Jun-20 15:00N 40°40' W 074°09'0 0.3
2018-Jun-20 14:30N 40°40' W 074°09'0 0.0
2018-Jun-20 14:00N 40°40' W 074°09'0 0.1
2018-Jun-20 13:30N 40°40' W 074°09'0 0.0
2018-Jun-20 13:00N 40°40' W 074°09'1 2.0
2018-Jun-20 12:30N 40°39' W 074°09'1 0.5
2018-Jun-20 09:35N 40°39' W 074°07'0 0.0
2018-Jun-20 09:29N 40°39' W 074°07'0 0.0
2018-Jun-20 00:11N 40°39' W 074°07'0 0.0
2018-Jun-19 23:53N 40°39' W 074°07'0 0.0
2018-Jun-19 21:35N 40°39' W 074°07'0 0.0
2018-Jun-19 21:08N 40°39' W 074°07'0 0.0
2018-Jun-19 18:11N 40°39' W 074°07'0 0.0
2018-Jun-19 17:41N 40°39' W 074°07'0 0.0
2018-Jun-19 17:11N 40°39' W 074°07'0 0.0
2018-Jun-19 15:35N 40°39' W 074°07'0 0.0
2018-Jun-19 15:17N 40°39' W 074°07'0 0.0
2018-Jun-19 14:53N 40°39' W 074°07'0 0.0
2018-Jun-19 14:11N 40°39' W 074°07'0 0.0
2018-Jun-19 13:59N 40°39' W 074°07'0 0.0
2018-Jun-19 12:44N 40°39' W 074°07'0 0.0
2018-Jun-19 10:53N 40°39' W 074°07'0 0.0
2018-Jun-19 10:29N 40°39' W 074°07'0 0.0
2018-Jun-19 09:59N 40°39' W 074°07'0 0.0
2018-Jun-19 09:23N 40°39' W 074°07'0 0.0
2018-Jun-19 08:59N 40°39' W 074°07'0 0.0
2018-Jun-19 08:23N 40°39' W 074°07'0 0.0
2018-Jun-19 07:53N 40°39' W 074°07'0 0.0
2018-Jun-19 05:45N 40°39' W 074°07'1 4.9
2018-Jun-19 05:31N 40°38' W 074°09'0 0.0
2018-Jun-19 05:00N 40°38' W 074°09'1 2.3
2018-Jun-19 04:30N 40°39' W 074°07'0 0.1
2018-Jun-19 03:56N 40°39' W 074°07'0 0.0
2018-Jun-19 03:26N 40°39' W 074°07'0 0.0
2018-Jun-19 02:56N 40°39' W 074°07'0 0.0
2018-Jun-19 02:26N 40°39' W 074°07'0 0.0
2018-Jun-19 01:56N 40°39' W 074°07'0 0.0
2018-Jun-19 00:56N 40°39' W 074°07'0 0.0
2018-Jun-19 00:26N 40°39' W 074°07'0 0.0
2018-Jun-18 23:56N 40°39' W 074°07'0 0.0
2018-Jun-18 23:26N 40°39' W 074°07'0 0.0
2018-Jun-18 22:56N 40°39' W 074°07'0 0.0
2018-Jun-18 22:26N 40°39' W 074°07'0 0.0
2018-Jun-18 21:56N 40°39' W 074°07'0 0.0
2018-Jun-18 21:26N 40°39' W 074°07'0 0.0
2018-Jun-18 20:50N 40°39' W 074°07'0 0.0
2018-Jun-18 19:08N 40°39' W 074°07'0 0.0
2018-Jun-18 19:00N 40°39' W 074°07'0 0.0
2018-Jun-18 18:30N 40°39' W 074°07'0 0.0
2018-Jun-18 18:00N 40°39' W 074°07'0 0.0
2018-Jun-18 17:24N 40°39' W 074°07'0 0.0
2018-Jun-18 17:00N 40°39' W 074°07'0 0.0
2018-Jun-18 16:28N 40°39' W 074°07'0 0.0
2018-Jun-18 16:00N 40°39' W 074°07'0 0.0
2018-Jun-18 15:30N 40°39' W 074°07'0 0.0
2018-Jun-18 15:00N 40°39' W 074°07'0 0.0
2018-Jun-18 14:29N 40°39' W 074°07'0 0.0
2018-Jun-18 14:00N 40°39' W 074°07'0 0.0
2018-Jun-18 13:27N 40°39' W 074°07'0 0.0
2018-Jun-18 13:00N 40°39' W 074°07'0 0.0
2018-Jun-18 12:30N 40°39' W 074°07'2 4.2
2018-Jun-18 12:00N 40°40' W 074°08'1 1.5
2018-Jun-18 11:30N 40°41' W 074°09'1 2.7
2018-Jun-18 11:00N 40°40' W 074°09'1 2.6
2018-Jun-18 10:30N 40°39' W 074°08'3 5.8
2018-Jun-18 10:00N 40°40' W 074°04'0 0.8
2018-Jun-18 09:30N 40°40' W 074°04'0 0.0
2018-Jun-18 09:00N 40°40' W 074°04'0 0.0
2018-Jun-18 08:30N 40°40' W 074°04'0 0.0
2018-Jun-18 08:00N 40°40' W 074°04'0 0.0
2018-Jun-18 07:30N 40°40' W 074°04'0 0.0
2018-Jun-18 07:00N 40°40' W 074°04'0 0.0
2018-Jun-18 06:30N 40°40' W 074°04'0 0.0
2018-Jun-18 06:00N 40°40' W 074°04'0 0.1
2018-Jun-18 05:31N 40°40' W 074°04'2 3.5
2018-Jun-18 05:00N 40°39' W 074°06'1 1.8
2018-Jun-18 04:30N 40°39' W 074°07'0 0.0
2018-Jun-18 03:59N 40°39' W 074°07'0 0.0
2018-Jun-18 03:29N 40°39' W 074°07'0 0.0
2018-Jun-18 02:59N 40°39' W 074°07'0 0.0
2018-Jun-18 02:29N 40°39' W 074°07'0 0.0
2018-Jun-18 01:59N 40°39' W 074°07'0 0.0
2018-Jun-18 01:17N 40°39' W 074°07'0 0.0
2018-Jun-18 00:59N 40°39' W 074°07'0 0.0
2018-Jun-18 00:29N 40°39' W 074°07'0 0.0
2018-Jun-17 22:14N 40°39' W 074°07'1 3.5
2018-Jun-17 22:01N 40°39' W 074°06'1 1.6
2018-Jun-17 21:30N 40°39' W 074°07'0 0.0
2018-Jun-17 18:09N 40°39' W 074°07'1 4.2
2018-Jun-17 18:00N 40°39' W 074°07'5 9.5
2018-Jun-17 17:30N 40°40' W 074°01'0 0.6
2018-Jun-17 17:00N 40°40' W 074°01'2 3.5
2018-Jun-17 16:30N 40°39' W 074°03'0 0.0
2018-Jun-17 16:00N 40°39' W 074°03'0 0.0
2018-Jun-17 15:30N 40°39' W 074°03'0 0.1
2018-Jun-17 15:00N 40°39' W 074°03'0 0.0
2018-Jun-17 14:30N 40°39' W 074°03'0 0.1
2018-Jun-17 14:01N 40°39' W 074°03'3 4.3
2018-Jun-17 13:13N 40°39' W 074°07'0 0.0
2018-Jun-17 12:59N 40°39' W 074°07'0 0.0
2018-Jun-17 12:05N 40°39' W 074°07'0 0.0
2018-Jun-17 11:55N 40°39' W 074°07'0 0.0
2018-Jun-17 11:26N 40°39' W 074°07'0 0.0
2018-Jun-17 10:46N 40°39' W 074°07'0 0.0
2018-Jun-17 10:17N 40°39' W 074°07'0 0.0
2018-Jun-17 10:00N 40°39' W 074°07'0 0.0
2018-Jun-17 09:29N 40°39' W 074°07'0 0.0
2018-Jun-17 08:58N 40°39' W 074°07'0 0.0
2018-Jun-17 08:15N 40°39' W 074°07'0 0.0
2018-Jun-17 07:50N 40°39' W 074°07'0 0.0
2018-Jun-17 07:30N 40°39' W 074°07'0 0.0
2018-Jun-17 07:00N 40°39' W 074°07'0 0.0
2018-Jun-17 06:28N 40°39' W 074°07'0 0.0
2018-Jun-17 06:00N 40°39' W 074°07'0 0.0
2018-Jun-17 05:29N 40°39' W 074°07'0 0.0
2018-Jun-17 05:00N 40°39' W 074°07'0 0.0
2018-Jun-17 04:30N 40°39' W 074°07'0 0.0
2018-Jun-17 04:00N 40°39' W 074°07'1 2.3
2018-Jun-17 03:30N 40°39' W 074°06'1 1.8
2018-Jun-17 02:53N 40°39' W 074°07'0 0.0
2018-Jun-17 01:44N 40°39' W 074°07'0 0.0
2018-Jun-17 01:25N 40°39' W 074°07'0 0.0
2018-Jun-16 20:37N 40°39' W 074°07'0 0.0
2018-Jun-16 20:20N 40°39' W 074°07'0 0.0
2018-Jun-16 19:55N 40°39' W 074°07'0 0.0
2018-Jun-16 18:51N 40°39' W 074°07'0 0.0
2018-Jun-16 18:24N 40°39' W 074°07'0 0.0
2018-Jun-16 17:58N 40°39' W 074°07'0 0.0
2018-Jun-16 17:30N 40°39' W 074°07'0 0.0
2018-Jun-16 17:00N 40°39' W 074°07'0 0.0
2018-Jun-16 16:30N 40°39' W 074°07'0 0.0
2018-Jun-16 16:00N 40°39' W 074°07'1 2.3
2018-Jun-16 15:30N 40°39' W 074°06'1 2.5
2018-Jun-16 15:01N 40°39' W 074°04'1 1.6
2018-Jun-16 14:31N 40°40' W 074°04'0 0.0
2018-Jun-16 14:00N 40°40' W 074°04'0 0.0
2018-Jun-16 13:30N 40°40' W 074°04'0 0.0
2018-Jun-16 13:00N 40°40' W 074°04'0 0.0
2018-Jun-16 12:30N 40°40' W 074°04'0 0.5
2018-Jun-16 12:00N 40°40' W 074°04'2 4.9
2018-Jun-16 11:30N 40°40' W 074°01'1 1.1
2018-Jun-16 11:00N 40°40' W 074°00'1 1.4
2018-Jun-16 10:30N 40°40' W 074°01'1 1.5
2018-Jun-16 10:00N 40°40' W 074°00'0 0.0
2018-Jun-16 09:30N 40°40' W 074°00'0 0.0
2018-Jun-16 09:00N 40°40' W 074°00'0 0.0
2018-Jun-16 08:30N 40°40' W 074°00'0 0.0
2018-Jun-16 08:00N 40°40' W 074°00'0 0.0
2018-Jun-16 07:30N 40°40' W 074°00'0 0.0
2018-Jun-16 07:00N 40°40' W 074°00'0 0.0
2018-Jun-16 06:30N 40°40' W 074°00'0 0.0
2018-Jun-16 06:00N 40°40' W 074°00'0 0.0
2018-Jun-16 05:30N 40°40' W 074°00'0 0.0
2018-Jun-16 05:00N 40°40' W 074°00'0 0.0
2018-Jun-16 04:30N 40°40' W 074°00'0 0.3
2018-Jun-16 04:00N 40°40' W 074°00'3 6.2
2018-Jun-16 03:30N 40°40' W 074°04'0 0.0
2018-Jun-16 03:00N 40°40' W 074°04'0 0.0
2018-Jun-16 02:30N 40°40' W 074°04'0 0.1
2018-Jun-16 02:00N 40°40' W 074°04'1 1.6
2018-Jun-16 01:30N 40°39' W 074°03'1 3.0
2018-Jun-16 01:00N 40°39' W 074°05'2 0.4
2018-Jun-15 20:52N 40°38' W 074°07'0 0.1
2018-Jun-15 20:26N 40°39' W 074°07'0 0.0
2018-Jun-15 17:46N 40°38' W 074°07'0 0.1
2018-Jun-15 17:29N 40°38' W 074°07'0 0.0
2018-Jun-15 17:00N 40°38' W 074°07'0 0.0
2018-Jun-15 16:27N 40°38' W 074°07'0 0.0
2018-Jun-15 15:54N 40°38' W 074°07'0 0.0
2018-Jun-15 12:30N 40°38' W 074°07'0 0.0
2018-Jun-15 11:45N 40°38' W 074°07'0 0.0
2018-Jun-15 11:28N 40°38' W 074°07'0 0.0
2018-Jun-15 10:53N 40°38' W 074°07'0 0.0
2018-Jun-15 10:07N 40°38' W 074°07'0 0.0
2018-Jun-15 09:58N 40°38' W 074°07'0 0.0
2018-Jun-15 09:00N 40°38' W 074°07'0 0.0
2018-Jun-15 08:29N 40°38' W 074°07'0 0.0
2018-Jun-15 01:18N 40°38' W 074°07'0 0.0
2018-Jun-15 00:43N 40°38' W 074°07'0 0.0
2018-Jun-15 00:30N 40°38' W 074°07'0 0.0
2018-Jun-14 23:59N 40°38' W 074°07'0 0.0
2018-Jun-14 23:30N 40°38' W 074°07'0 0.0
2018-Jun-14 22:42N 40°38' W 074°07'1 5.8
2018-Jun-14 22:31N 40°39' W 074°09'1 2.4
2018-Jun-14 22:00N 40°39' W 074°10'2 3.1
2018-Jun-14 21:15N 40°39' W 074°07'1 5.1
2018-Jun-14 20:58N 40°39' W 074°05'0 0.0
2018-Jun-14 20:28N 40°39' W 074°05'0 0.0
2018-Jun-14 19:58N 40°39' W 074°05'0 0.0
2018-Jun-14 19:28N 40°39' W 074°05'0 0.0
2018-Jun-14 18:58N 40°39' W 074°05'0 0.0
2018-Jun-14 18:28N 40°39' W 074°05'0 0.0
2018-Jun-14 17:59N 40°39' W 074°05'1 2.5
2018-Jun-14 17:25N 40°39' W 074°07'0 0.0
2018-Jun-14 16:58N 40°39' W 074°07'0 0.0
2018-Jun-14 14:01N 40°39' W 074°07'0 0.0
2018-Jun-14 13:55N 40°39' W 074°07'0 1.0
2018-Jun-14 13:30N 40°39' W 074°07'0 0.6
2018-Jun-14 13:00N 40°39' W 074°07'0 0.0
2018-Jun-14 10:17N 40°38' W 074°07'0 0.0
2018-Jun-14 09:47N 40°38' W 074°07'0 0.0
2018-Jun-14 09:23N 40°38' W 074°07'0 0.0
2018-Jun-14 06:35N 40°38' W 074°07'0 4.6
2018-Jun-14 06:30N 40°39' W 074°07'1 1.7
2018-Jun-14 06:00N 40°39' W 074°06'0 0.9
2018-Jun-14 05:31N 40°39' W 074°05'2 3.1
2018-Jun-14 04:59N 40°39' W 074°07'0 0.0
2018-Jun-14 04:30N 40°39' W 074°07'0 0.0
2018-Jun-14 04:00N 40°39' W 074°07'0 0.0
2018-Jun-14 03:28N 40°39' W 074°07'0 0.0
2018-Jun-14 03:00N 40°39' W 074°07'0 0.0
2018-Jun-14 02:30N 40°39' W 074°07'0 0.0
2018-Jun-14 02:00N 40°39' W 074°07'0 0.0
2018-Jun-14 01:30N 40°39' W 074°07'0 0.0
2018-Jun-14 01:00N 40°39' W 074°07'0 0.0
2018-Jun-14 00:30N 40°39' W 074°07'4 8.1
2018-Jun-14 00:00N 40°41' W 074°03'1 1.8
2018-Jun-13 23:30N 40°41' W 074°01'1 1.4
2018-Jun-13 23:00N 40°41' W 074°01'1 2.8
2018-Jun-13 22:31N 40°40' W 074°00'0 0.1
2018-Jun-13 22:00N 40°40' W 074°00'0 0.0
2018-Jun-13 21:30N 40°40' W 074°00'0 0.0
2018-Jun-13 21:00N 40°40' W 074°00'0 0.0
2018-Jun-13 20:30N 40°40' W 074°00'1 2.8
2018-Jun-13 20:00N 40°41' W 074°01'0 0.5
2018-Jun-13 19:30N 40°41' W 074°01'4 7.9
2018-Jun-13 19:00N 40°39' W 074°05'1 1.7
2018-Jun-13 18:30N 40°39' W 074°06'1 1.3
2018-Jun-13 17:58N 40°38' W 074°07'0 0.0
2018-Jun-13 17:29N 40°38' W 074°07'0 0.0
2018-Jun-13 16:49N 40°38' W 074°07'0 0.0
2018-Jun-13 16:24N 40°38' W 074°07'0 0.0
2018-Jun-13 16:00N 40°38' W 074°07'0 0.0
2018-Jun-13 15:27N 40°38' W 074°07'0 0.0
2018-Jun-13 14:26N 40°38' W 074°07'0 0.0
2018-Jun-13 13:42N 40°38' W 074°07'0 0.0
2018-Jun-13 13:30N 40°38' W 074°07'0 0.0
2018-Jun-13 13:00N 40°38' W 074°07'0 0.0
2018-Jun-13 12:30N 40°38' W 074°07'0 0.0
2018-Jun-13 11:54N 40°38' W 074°07'0 0.0
2018-Jun-13 11:08N 40°38' W 074°07'0 0.0
2018-Jun-13 10:50N 40°38' W 074°07'0 0.0
2018-Jun-13 10:28N 40°38' W 074°07'0 0.0
2018-Jun-13 09:44N 40°38' W 074°07'0 0.0
2018-Jun-13 09:23N 40°38' W 074°07'0 0.0
2018-Jun-13 08:55N 40°38' W 074°07'0 0.0
2018-Jun-13 08:26N 40°38' W 074°07'0 0.0
2018-Jun-13 08:00N 40°38' W 074°07'0 0.5
2018-Jun-13 07:30N 40°39' W 074°07'2 3.1
2018-Jun-13 07:00N 40°39' W 074°05'1 2.3
2018-Jun-13 06:30N 40°39' W 074°07'1 0.2
2018-Jun-13 03:13N 40°39' W 074°07'2 7.8
2018-Jun-13 03:00N 40°39' W 074°10'2 3.6
2018-Jun-13 02:30N 40°38' W 074°12'0 0.2
2018-Jun-13 02:00N 40°38' W 074°12'3 6.7
2018-Jun-13 01:30N 40°39' W 074°07'3 6.7
2018-Jun-13 01:00N 40°38' W 074°03'0 0.1
2018-Jun-13 00:30N 40°38' W 074°03'1 1.7
2018-Jun-13 00:00N 40°38' W 074°03'3 5.4
2018-Jun-12 23:30N 40°35' W 074°02'3 5.3
2018-Jun-12 23:00N 40°32' W 074°01'39 6.1
2018-Jun-12 16:40N 39°54' W 073°59'3 9.0
2018-Jun-12 16:20N 39°50' W 073°59'411.3
2018-Jun-12 15:59N 39°47' W 073°60'611.1
2018-Jun-12 15:29N 39°41' W 074°01'510.9
2018-Jun-12 15:00N 39°36' W 074°04'811.0
2018-Jun-12 14:17N 39°29' W 074°09'411.0
2018-Jun-12 13:57N 39°26' W 074°11'710.4
2018-Jun-12 13:16N 39°21' W 074°16'410.2
2018-Jun-12 12:56N 39°18' W 074°19'410.0
2018-Jun-12 12:30N 39°15' W 074°23'510.2
2018-Jun-12 12:00N 39°11' W 074°27'510.3
2018-Jun-12 11:30N 39°07' W 074°32'510.1
2018-Jun-12 11:00N 39°03' W 074°36'20 9.7
2018-Jun-12 08:59N 38°49' W 074°54'5 8.7
2018-Jun-12 08:25N 38°48' W 074°60'5 8.3
2018-Jun-12 07:51N 38°52' W 075°04'410.6
2018-Jun-12 07:29N 38°56' W 075°05'511.3
2018-Jun-12 07:00N 39°01' W 075°09'612.3
2018-Jun-12 06:30N 39°06' W 075°12'713.2
2018-Jun-12 06:00N 39°12' W 075°17'713.6
2018-Jun-12 05:30N 39°17' W 075°22'713.6
2018-Jun-12 05:00N 39°22' W 075°28'612.4
2018-Jun-12 04:30N 39°27' W 075°33'611.6
2018-Jun-12 04:00N 39°33' W 075°33'510.7
2018-Jun-12 03:30N 39°38' W 075°35'510.1
2018-Jun-12 03:01N 39°42' W 075°31'5 9.7
2018-Jun-12 02:30N 39°46' W 075°28'5 9.5
2018-Jun-12 02:00N 39°49' W 075°23'4 7.8
2018-Jun-12 01:30N 39°51' W 075°19'4 8.7
2018-Jun-12 01:00N 39°52' W 075°13'2 4.6
2018-Jun-12 00:30N 39°53' W 075°11'2 4.8
2018-Jun-12 00:00N 39°54' W 075°08'5 9.5
2018-Jun-11 23:30N 39°59' W 075°06'1 1.0
2018-Jun-11 23:00N 39°59' W 075°05'4 8.5
2018-Jun-11 22:30N 39°55' W 075°08'3 6.8
2018-Jun-11 22:00N 39°53' W 075°12'1 1.6
2018-Jun-11 21:31N 39°54' W 075°12'1 2.6
2018-Jun-11 20:58N 39°53' W 075°11'0 0.0
2018-Jun-11 20:28N 39°53' W 075°11'0 0.0
2018-Jun-11 19:58N 39°53' W 075°11'0 0.0
2018-Jun-11 19:28N 39°53' W 075°11'0 0.0
2018-Jun-11 18:58N 39°53' W 075°11'0 0.0
2018-Jun-11 18:28N 39°53' W 075°11'0 0.0
2018-Jun-11 17:58N 39°53' W 075°11'0 0.0
2018-Jun-11 17:28N 39°53' W 075°11'0 0.0
2018-Jun-11 16:58N 39°53' W 075°11'0 0.0
2018-Jun-11 16:28N 39°53' W 075°11'0 0.0
2018-Jun-11 15:58N 39°53' W 075°11'0 0.0
2018-Jun-11 15:25N 39°53' W 075°11'0 0.0
2018-Jun-11 14:58N 39°53' W 075°11'0 0.0
2018-Jun-11 14:28N 39°53' W 075°11'0 0.0
2018-Jun-11 13:58N 39°53' W 075°11'0 0.0
2018-Jun-11 13:28N 39°53' W 075°11'0 0.0
2018-Jun-11 12:58N 39°53' W 075°11'0 0.0
2018-Jun-11 12:30N 39°53' W 075°11'0 0.0
2018-Jun-11 11:58N 39°53' W 075°11'0 0.0
2018-Jun-11 11:30N 39°53' W 075°11'0 0.0
2018-Jun-11 10:58N 39°53' W 075°11'0 0.0
2018-Jun-11 10:30N 39°53' W 075°11'0 0.0
2018-Jun-11 09:58N 39°53' W 075°11'0 0.0
2018-Jun-11 09:28N 39°53' W 075°11'0 0.0
2018-Jun-11 08:58N 39°53' W 075°11'0 0.0
2018-Jun-11 08:28N 39°53' W 075°11'0 0.0
2018-Jun-11 07:58N 39°53' W 075°11'0 0.0
2018-Jun-11 07:28N 39°53' W 075°11'0 0.0
2018-Jun-11 07:00N 39°53' W 075°11'2 3.9
2018-Jun-11 06:30N 39°52' W 075°13'4 8.9
2018-Jun-11 06:00N 39°51' W 075°19'4 8.7
2018-Jun-11 05:31N 39°49' W 075°24'5 9.7
2018-Jun-11 05:01N 39°46' W 075°29'3 6.8
2018-Jun-11 04:31N 39°43' W 075°31'0 0.0
2018-Jun-11 04:00N 39°43' W 075°31'0 0.4
2018-Jun-11 03:30N 39°43' W 075°31'0 0.0
2018-Jun-11 03:00N 39°43' W 075°31'0 0.0
2018-Jun-11 02:30N 39°43' W 075°31'0 0.0
2018-Jun-11 02:00N 39°43' W 075°31'0 0.0
2018-Jun-11 01:30N 39°43' W 075°31'0 0.0
2018-Jun-11 01:00N 39°43' W 075°31'0 0.0
2018-Jun-11 00:30N 39°43' W 075°31'0 0.0
2018-Jun-10 23:59N 39°43' W 075°31'0 0.0
2018-Jun-10 23:30N 39°43' W 075°31'0 0.0
2018-Jun-10 23:00N 39°43' W 075°31'0 0.0
2018-Jun-10 22:30N 39°43' W 075°31'0 0.0
2018-Jun-10 22:00N 39°43' W 075°31'0 0.0
2018-Jun-10 21:30N 39°43' W 075°31'0 0.0
2018-Jun-10 21:00N 39°43' W 075°31'0 0.0
2018-Jun-10 20:30N 39°43' W 075°31'0 0.0
2018-Jun-10 19:59N 39°43' W 075°31'0 0.0
2018-Jun-10 19:30N 39°43' W 075°31'0 0.0
2018-Jun-10 18:58N 39°43' W 075°31'0 0.0
2018-Jun-10 18:30N 39°43' W 075°31'0 0.0
2018-Jun-10 18:00N 39°43' W 075°31'0 0.0
2018-Jun-10 17:30N 39°43' W 075°31'0 0.0
2018-Jun-10 17:00N 39°43' W 075°31'0 0.0
2018-Jun-10 16:30N 39°43' W 075°31'  
Track history (hours):
 
Tides and Currents Weather Stations Pressure Air Temp Water Temp Dewpoint Dewpoint Depression Visibility Wind Speed Wind Dir Waves Ship Positions

Ivory Coast

Owner: Dann Marine Towing, LC, Chesapeake City, MD. More information available from US FCC via Universal Licensing System and Coast Guard Vessel Documentation Center.

Last reported at 2018-Jun-20 16:22 UTC. Time now 2018-Jun-20 16:58 UTC.
Position N 40°38' W 074°07'.

Length 33 m; draft 5 m.

Type: Tug. MMSI: 367029690.

Date/timePositionNaut miles runAvg speedWind from/ knotsBaromVisibWave heightAir tempDewpointWater temp
2018-Jun-20 16:22N 40°38' W 074°07'1 4.0
2018-Jun-20 16:00N 40°39' W 074°05'1 1.2
2018-Jun-20 15:30N 40°39' W 074°06'2 4.1
2018-Jun-20 15:00N 40°40' W 074°09'0 0.3
2018-Jun-20 14:30N 40°40' W 074°09'0 0.0
2018-Jun-20 14:00N 40°40' W 074°09'0 0.1
2018-Jun-20 13:30N 40°40' W 074°09'0 0.0
2018-Jun-20 13:00N 40°40' W 074°09'1 2.0
2018-Jun-20 12:30N 40°39' W 074°09'1 0.5
2018-Jun-20 09:35N 40°39' W 074°07'0 0.0
2018-Jun-20 09:29N 40°39' W 074°07'0 0.0
2018-Jun-20 00:11N 40°39' W 074°07'0 0.0
2018-Jun-19 23:53N 40°39' W 074°07'0 0.0
2018-Jun-19 21:35N 40°39' W 074°07'0 0.0
2018-Jun-19 21:08N 40°39' W 074°07'0 0.0
2018-Jun-19 18:11N 40°39' W 074°07'0 0.0
2018-Jun-19 17:41N 40°39' W 074°07'0 0.0
2018-Jun-19 17:11N 40°39' W 074°07'0 0.0
2018-Jun-19 15:35N 40°39' W 074°07'0 0.0
2018-Jun-19 15:17N 40°39' W 074°07'0 0.0
2018-Jun-19 14:53N 40°39' W 074°07'0 0.0
2018-Jun-19 14:11N 40°39' W 074°07'0 0.0
2018-Jun-19 13:59N 40°39' W 074°07'0 0.0
2018-Jun-19 12:44N 40°39' W 074°07'0 0.0
2018-Jun-19 10:53N 40°39' W 074°07'0 0.0
2018-Jun-19 10:29N 40°39' W 074°07'0 0.0
2018-Jun-19 09:59N 40°39' W 074°07'0 0.0
2018-Jun-19 09:23N 40°39' W 074°07'0 0.0
2018-Jun-19 08:59N 40°39' W 074°07'0 0.0
2018-Jun-19 08:23N 40°39' W 074°07'0 0.0
2018-Jun-19 07:53N 40°39' W 074°07'0 0.0
2018-Jun-19 05:45N 40°39' W 074°07'1 4.9
2018-Jun-19 05:31N 40°38' W 074°09'0 0.0
2018-Jun-19 05:00N 40°38' W 074°09'1 2.3
2018-Jun-19 04:30N 40°39' W 074°07'0 0.1
2018-Jun-19 03:56N 40°39' W 074°07'0 0.0
2018-Jun-19 03:26N 40°39' W 074°07'0 0.0
2018-Jun-19 02:56N 40°39' W 074°07'0 0.0
2018-Jun-19 02:26N 40°39' W 074°07'0 0.0
2018-Jun-19 01:56N 40°39' W 074°07'0 0.0
2018-Jun-19 00:56N 40°39' W 074°07'0 0.0
2018-Jun-19 00:26N 40°39' W 074°07'0 0.0
2018-Jun-18 23:56N 40°39' W 074°07'0 0.0
2018-Jun-18 23:26N 40°39' W 074°07'0 0.0
2018-Jun-18 22:56N 40°39' W 074°07'0 0.0
2018-Jun-18 22:26N 40°39' W 074°07'0 0.0
2018-Jun-18 21:56N 40°39' W 074°07'0 0.0
2018-Jun-18 21:26N 40°39' W 074°07'0 0.0
2018-Jun-18 20:50N 40°39' W 074°07'0 0.0
2018-Jun-18 19:08N 40°39' W 074°07'0 0.0
2018-Jun-18 19:00N 40°39' W 074°07'0 0.0
2018-Jun-18 18:30N 40°39' W 074°07'0 0.0
2018-Jun-18 18:00N 40°39' W 074°07'0 0.0
2018-Jun-18 17:24N 40°39' W 074°07'0 0.0
2018-Jun-18 17:00N 40°39' W 074°07'0 0.0
2018-Jun-18 16:28N 40°39' W 074°07'0 0.0
2018-Jun-18 16:00N 40°39' W 074°07'0 0.0
2018-Jun-18 15:30N 40°39' W 074°07'0 0.0
2018-Jun-18 15:00N 40°39' W 074°07'0 0.0
2018-Jun-18 14:29N 40°39' W 074°07'0 0.0
2018-Jun-18 14:00N 40°39' W 074°07'0 0.0
2018-Jun-18 13:27N 40°39' W 074°07'0 0.0
2018-Jun-18 13:00N 40°39' W 074°07'0 0.0
2018-Jun-18 12:30N 40°39' W 074°07'2 4.2
2018-Jun-18 12:00N 40°40' W 074°08'1 1.5
2018-Jun-18 11:30N 40°41' W 074°09'1 2.7
2018-Jun-18 11:00N 40°40' W 074°09'1 2.6
2018-Jun-18 10:30N 40°39' W 074°08'3 5.8
2018-Jun-18 10:00N 40°40' W 074°04'0 0.8
2018-Jun-18 09:30N 40°40' W 074°04'0 0.0
2018-Jun-18 09:00N 40°40' W 074°04'0 0.0
2018-Jun-18 08:30N 40°40' W 074°04'0 0.0
2018-Jun-18 08:00N 40°40' W 074°04'0 0.0
2018-Jun-18 07:30N 40°40' W 074°04'0 0.0
2018-Jun-18 07:00N 40°40' W 074°04'0 0.0
2018-Jun-18 06:30N 40°40' W 074°04'0 0.0
2018-Jun-18 06:00N 40°40' W 074°04'0 0.1
2018-Jun-18 05:31N 40°40' W 074°04'2 3.5
2018-Jun-18 05:00N 40°39' W 074°06'1 1.8
2018-Jun-18 04:30N 40°39' W 074°07'0 0.0
2018-Jun-18 03:59N 40°39' W 074°07'0 0.0
2018-Jun-18 03:29N 40°39' W 074°07'0 0.0
2018-Jun-18 02:59N 40°39' W 074°07'0 0.0
2018-Jun-18 02:29N 40°39' W 074°07'0 0.0
2018-Jun-18 01:59N 40°39' W 074°07'0 0.0
2018-Jun-18 01:17N 40°39' W 074°07'0 0.0
2018-Jun-18 00:59N 40°39' W 074°07'0 0.0
2018-Jun-18 00:29N 40°39' W 074°07'0 0.0
2018-Jun-17 22:14N 40°39' W 074°07'1 3.5
2018-Jun-17 22:01N 40°39' W 074°06'1 1.6
2018-Jun-17 21:30N 40°39' W 074°07'0 0.0
2018-Jun-17 18:09N 40°39' W 074°07'1 4.2
2018-Jun-17 18:00N 40°39' W 074°07'5 9.5
2018-Jun-17 17:30N 40°40' W 074°01'0 0.6
2018-Jun-17 17:00N 40°40' W 074°01'2 3.5
2018-Jun-17 16:30N 40°39' W 074°03'0 0.0
2018-Jun-17 16:00N 40°39' W 074°03'0 0.0
2018-Jun-17 15:30N 40°39' W 074°03'0 0.1
2018-Jun-17 15:00N 40°39' W 074°03'0 0.0
2018-Jun-17 14:30N 40°39' W 074°03'0 0.1
2018-Jun-17 14:01N 40°39' W 074°03'3 4.3
2018-Jun-17 13:13N 40°39' W 074°07'0 0.0
2018-Jun-17 12:59N 40°39' W 074°07'0 0.0
2018-Jun-17 12:05N 40°39' W 074°07'0 0.0
2018-Jun-17 11:55N 40°39' W 074°07'0 0.0
2018-Jun-17 11:26N 40°39' W 074°07'0 0.0
2018-Jun-17 10:46N 40°39' W 074°07'0 0.0
2018-Jun-17 10:17N 40°39' W 074°07'0 0.0
2018-Jun-17 10:00N 40°39' W 074°07'0 0.0
2018-Jun-17 09:29N 40°39' W 074°07'0 0.0
2018-Jun-17 08:58N 40°39' W 074°07'0 0.0
2018-Jun-17 08:15N 40°39' W 074°07'0 0.0
2018-Jun-17 07:50N 40°39' W 074°07'0 0.0
2018-Jun-17 07:30N 40°39' W 074°07'0 0.0
2018-Jun-17 07:00N 40°39' W 074°07'0 0.0
2018-Jun-17 06:28N 40°39' W 074°07'0 0.0
2018-Jun-17 06:00N 40°39' W 074°07'0 0.0
2018-Jun-17 05:29N 40°39' W 074°07'0 0.0
2018-Jun-17 05:00N 40°39' W 074°07'0 0.0
2018-Jun-17 04:30N 40°39' W 074°07'0 0.0
2018-Jun-17 04:00N 40°39' W 074°07'1 2.3
2018-Jun-17 03:30N 40°39' W 074°06'1 1.8
2018-Jun-17 02:53N 40°39' W 074°07'0 0.0
2018-Jun-17 01:44N 40°39' W 074°07'0 0.0
2018-Jun-17 01:25N 40°39' W 074°07'0 0.0
2018-Jun-16 20:37N 40°39' W 074°07'0 0.0
2018-Jun-16 20:20N 40°39' W 074°07'0 0.0
2018-Jun-16 19:55N 40°39' W 074°07'0 0.0
2018-Jun-16 18:51N 40°39' W 074°07'0 0.0
2018-Jun-16 18:24N 40°39' W 074°07'0 0.0
2018-Jun-16 17:58N 40°39' W 074°07'0 0.0
2018-Jun-16 17:30N 40°39' W 074°07'0 0.0
2018-Jun-16 17:00N 40°39' W 074°07'0 0.0
2018-Jun-16 16:30N 40°39' W 074°07'0 0.0
2018-Jun-16 16:00N 40°39' W 074°07'1 2.3
2018-Jun-16 15:30N 40°39' W 074°06'1 2.5
2018-Jun-16 15:01N 40°39' W 074°04'1 1.6
2018-Jun-16 14:31N 40°40' W 074°04'0 0.0
2018-Jun-16 14:00N 40°40' W 074°04'0 0.0
2018-Jun-16 13:30N 40°40' W 074°04'0 0.0
2018-Jun-16 13:00N 40°40' W 074°04'0 0.0
2018-Jun-16 12:30N 40°40' W 074°04'0 0.5
2018-Jun-16 12:00N 40°40' W 074°04'2 4.9
2018-Jun-16 11:30N 40°40' W 074°01'1 1.1
2018-Jun-16 11:00N 40°40' W 074°00'1 1.4
2018-Jun-16 10:30N 40°40' W 074°01'1 1.5
2018-Jun-16 10:00N 40°40' W 074°00'0 0.0
2018-Jun-16 09:30N 40°40' W 074°00'0 0.0
2018-Jun-16 09:00N 40°40' W 074°00'0 0.0
2018-Jun-16 08:30N 40°40' W 074°00'0 0.0
2018-Jun-16 08:00N 40°40' W 074°00'0 0.0
2018-Jun-16 07:30N 40°40' W 074°00'0 0.0
2018-Jun-16 07:00N 40°40' W 074°00'0 0.0
2018-Jun-16 06:30N 40°40' W 074°00'0 0.0
2018-Jun-16 06:00N 40°40' W 074°00'0 0.0
2018-Jun-16 05:30N 40°40' W 074°00'0 0.0
2018-Jun-16 05:00N 40°40' W 074°00'0 0.0
2018-Jun-16 04:30N 40°40' W 074°00'0 0.3
2018-Jun-16 04:00N 40°40' W 074°00'3 6.2
2018-Jun-16 03:30N 40°40' W 074°04'0 0.0
2018-Jun-16 03:00N 40°40' W 074°04'0 0.0
2018-Jun-16 02:30N 40°40' W 074°04'0 0.1
2018-Jun-16 02:00N 40°40' W 074°04'1 1.6
2018-Jun-16 01:30N 40°39' W 074°03'1 3.0
2018-Jun-16 01:00N 40°39' W 074°05'2 0.4
2018-Jun-15 20:52N 40°38' W 074°07'0 0.1
2018-Jun-15 20:26N 40°39' W 074°07'0 0.0
2018-Jun-15 17:46N 40°38' W 074°07'0 0.1
2018-Jun-15 17:29N 40°38' W 074°07'0 0.0
2018-Jun-15 17:00N 40°38' W 074°07'0 0.0
2018-Jun-15 16:27N 40°38' W 074°07'0 0.0
2018-Jun-15 15:54N 40°38' W 074°07'0 0.0
2018-Jun-15 12:30N 40°38' W 074°07'0 0.0
2018-Jun-15 11:45N 40°38' W 074°07'0 0.0
2018-Jun-15 11:28N 40°38' W 074°07'0 0.0
2018-Jun-15 10:53N 40°38' W 074°07'0 0.0
2018-Jun-15 10:07N 40°38' W 074°07'0 0.0
2018-Jun-15 09:58N 40°38' W 074°07'0 0.0
2018-Jun-15 09:00N 40°38' W 074°07'0 0.0
2018-Jun-15 08:29N 40°38' W 074°07'0 0.0
2018-Jun-15 01:18N 40°38' W 074°07'0 0.0
2018-Jun-15 00:43N 40°38' W 074°07'0 0.0
2018-Jun-15 00:30N 40°38' W 074°07'0 0.0
2018-Jun-14 23:59N 40°38' W 074°07'0 0.0
2018-Jun-14 23:30N 40°38' W 074°07'0 0.0
2018-Jun-14 22:42N 40°38' W 074°07'1 5.8
2018-Jun-14 22:31N 40°39' W 074°09'1 2.4
2018-Jun-14 22:00N 40°39' W 074°10'2 3.1
2018-Jun-14 21:15N 40°39' W 074°07'1 5.1
2018-Jun-14 20:58N 40°39' W 074°05'0 0.0
2018-Jun-14 20:28N 40°39' W 074°05'0 0.0
2018-Jun-14 19:58N 40°39' W 074°05'0 0.0
2018-Jun-14 19:28N 40°39' W 074°05'0 0.0
2018-Jun-14 18:58N 40°39' W 074°05'0 0.0
2018-Jun-14 18:28N 40°39' W 074°05'0 0.0
2018-Jun-14 17:59N 40°39' W 074°05'1 2.5
2018-Jun-14 17:25N 40°39' W 074°07'0 0.0
2018-Jun-14 16:58N 40°39' W 074°07'0 0.0
2018-Jun-14 14:01N 40°39' W 074°07'0 0.0
2018-Jun-14 13:55N 40°39' W 074°07'0 1.0
2018-Jun-14 13:30N 40°39' W 074°07'0 0.6
2018-Jun-14 13:00N 40°39' W 074°07'0 0.0
2018-Jun-14 10:17N 40°38' W 074°07'0 0.0
2018-Jun-14 09:47N 40°38' W 074°07'0 0.0
2018-Jun-14 09:23N 40°38' W 074°07'0 0.0
2018-Jun-14 06:35N 40°38' W 074°07'0 4.6
2018-Jun-14 06:30N 40°39' W 074°07'1 1.7
2018-Jun-14 06:00N 40°39' W 074°06'0 0.9
2018-Jun-14 05:31N 40°39' W 074°05'2 3.1
2018-Jun-14 04:59N 40°39' W 074°07'0 0.0
2018-Jun-14 04:30N 40°39' W 074°07'0 0.0
2018-Jun-14 04:00N 40°39' W 074°07'0 0.0
2018-Jun-14 03:28N 40°39' W 074°07'0 0.0
2018-Jun-14 03:00N 40°39' W 074°07'0 0.0
2018-Jun-14 02:30N 40°39' W 074°07'0 0.0
2018-Jun-14 02:00N 40°39' W 074°07'0 0.0
2018-Jun-14 01:30N 40°39' W 074°07'0 0.0
2018-Jun-14 01:00N 40°39' W 074°07'0 0.0
2018-Jun-14 00:30N 40°39' W 074°07'4 8.1
2018-Jun-14 00:00N 40°41' W 074°03'1 1.8
2018-Jun-13 23:30N 40°41' W 074°01'1 1.4
2018-Jun-13 23:00N 40°41' W 074°01'1 2.8
2018-Jun-13 22:31N 40°40' W 074°00'0 0.1
2018-Jun-13 22:00N 40°40' W 074°00'0 0.0
2018-Jun-13 21:30N 40°40' W 074°00'0 0.0
2018-Jun-13 21:00N 40°40' W 074°00'0 0.0
2018-Jun-13 20:30N 40°40' W 074°00'1 2.8
2018-Jun-13 20:00N 40°41' W 074°01'0 0.5
2018-Jun-13 19:30N 40°41' W 074°01'4 7.9
2018-Jun-13 19:00N 40°39' W 074°05'1 1.7
2018-Jun-13 18:30N 40°39' W 074°06'1 1.3
2018-Jun-13 17:58N 40°38' W 074°07'0 0.0
2018-Jun-13 17:29N 40°38' W 074°07'0 0.0
2018-Jun-13 16:49N 40°38' W 074°07'0 0.0
2018-Jun-13 16:24N 40°38' W 074°07'0 0.0
2018-Jun-13 16:00N 40°38' W 074°07'0 0.0
2018-Jun-13 15:27N 40°38' W 074°07'0 0.0
2018-Jun-13 14:26N 40°38' W 074°07'0 0.0
2018-Jun-13 13:42N 40°38' W 074°07'0 0.0
2018-Jun-13 13:30N 40°38' W 074°07'0 0.0
2018-Jun-13 13:00N 40°38' W 074°07'0 0.0
2018-Jun-13 12:30N 40°38' W 074°07'0 0.0
2018-Jun-13 11:54N 40°38' W 074°07'0 0.0
2018-Jun-13 11:08N 40°38' W 074°07'0 0.0
2018-Jun-13 10:50N 40°38' W 074°07'0 0.0
2018-Jun-13 10:28N 40°38' W 074°07'0 0.0
2018-Jun-13 09:44N 40°38' W 074°07'0 0.0
2018-Jun-13 09:23N 40°38' W 074°07'0 0.0
2018-Jun-13 08:55N 40°38' W 074°07'0 0.0
2018-Jun-13 08:26N 40°38' W 074°07'0 0.0
2018-Jun-13 08:00N 40°38' W 074°07'0 0.5
2018-Jun-13 07:30N 40°39' W 074°07'2 3.1
2018-Jun-13 07:00N 40°39' W 074°05'1 2.3
2018-Jun-13 06:30N 40°39' W 074°07'1 0.2
2018-Jun-13 03:13N 40°39' W 074°07'2 7.8
2018-Jun-13 03:00N 40°39' W 074°10'2 3.6
2018-Jun-13 02:30N 40°38' W 074°12'0 0.2
2018-Jun-13 02:00N 40°38' W 074°12'3 6.7
2018-Jun-13 01:30N 40°39' W 074°07'3 6.7
2018-Jun-13 01:00N 40°38' W 074°03'0 0.1
2018-Jun-13 00:30N 40°38' W 074°03'1 1.7
2018-Jun-13 00:00N 40°38' W 074°03'3 5.4
2018-Jun-12 23:30N 40°35' W 074°02'3 5.3
2018-Jun-12 23:00N 40°32' W 074°01'39 6.1
2018-Jun-12 16:40N 39°54' W 073°59'3 9.0
2018-Jun-12 16:20N 39°50' W 073°59'411.3
2018-Jun-12 15:59N 39°47' W 073°60'611.1
2018-Jun-12 15:29N 39°41' W 074°01'510.9
2018-Jun-12 15:00N 39°36' W 074°04'811.0
2018-Jun-12 14:17N 39°29' W 074°09'411.0
2018-Jun-12 13:57N 39°26' W 074°11'710.4
2018-Jun-12 13:16N 39°21' W 074°16'410.2
2018-Jun-12 12:56N 39°18' W 074°19'410.0
2018-Jun-12 12:30N 39°15' W 074°23'510.2
2018-Jun-12 12:00N 39°11' W 074°27'510.3
2018-Jun-12 11:30N 39°07' W 074°32'510.1
2018-Jun-12 11:00N 39°03' W 074°36'20 9.7
2018-Jun-12 08:59N 38°49' W 074°54'5 8.7
2018-Jun-12 08:25N 38°48' W 074°60'5 8.3
2018-Jun-12 07:51N 38°52' W 075°04'410.6
2018-Jun-12 07:29N 38°56' W 075°05'511.3
2018-Jun-12 07:00N 39°01' W 075°09'612.3
2018-Jun-12 06:30N 39°06' W 075°12'713.2
2018-Jun-12 06:00N 39°12' W 075°17'713.6
2018-Jun-12 05:30N 39°17' W 075°22'713.6
2018-Jun-12 05:00N 39°22' W 075°28'612.4
2018-Jun-12 04:30N 39°27' W 075°33'611.6
2018-Jun-12 04:00N 39°33' W 075°33'510.7
2018-Jun-12 03:30N 39°38' W 075°35'510.1
2018-Jun-12 03:01N 39°42' W 075°31'5 9.7
2018-Jun-12 02:30N 39°46' W 075°28'5 9.5
2018-Jun-12 02:00N 39°49' W 075°23'4 7.8
2018-Jun-12 01:30N 39°51' W 075°19'4 8.7
2018-Jun-12 01:00N 39°52' W 075°13'2 4.6
2018-Jun-12 00:30N 39°53' W 075°11'2 4.8
2018-Jun-12 00:00N 39°54' W 075°08'5 9.5
2018-Jun-11 23:30N 39°59' W 075°06'1 1.0
2018-Jun-11 23:00N 39°59' W 075°05'4 8.5
2018-Jun-11 22:30N 39°55' W 075°08'3 6.8
2018-Jun-11 22:00N 39°53' W 075°12'1 1.6
2018-Jun-11 21:31N 39°54' W 075°12'1 2.6
2018-Jun-11 20:58N 39°53' W 075°11'0 0.0
2018-Jun-11 20:28N 39°53' W 075°11'0 0.0
2018-Jun-11 19:58N 39°53' W 075°11'0 0.0
2018-Jun-11 19:28N 39°53' W 075°11'0 0.0
2018-Jun-11 18:58N 39°53' W 075°11'0 0.0
2018-Jun-11 18:28N 39°53' W 075°11'0 0.0
2018-Jun-11 17:58N 39°53' W 075°11'0 0.0
2018-Jun-11 17:28N 39°53' W 075°11'0 0.0
2018-Jun-11 16:58N 39°53' W 075°11'0 0.0
2018-Jun-11 16:28N 39°53' W 075°11'0 0.0
2018-Jun-11 15:58N 39°53' W 075°11'0 0.0
2018-Jun-11 15:25N 39°53' W 075°11'0 0.0
2018-Jun-11 14:58N 39°53' W 075°11'0 0.0
2018-Jun-11 14:28N 39°53' W 075°11'0 0.0
2018-Jun-11 13:58N 39°53' W 075°11'0 0.0
2018-Jun-11 13:28N 39°53' W 075°11'0 0.0
2018-Jun-11 12:58N 39°53' W 075°11'0 0.0
2018-Jun-11 12:30N 39°53' W 075°11'0 0.0
2018-Jun-11 11:58N 39°53' W 075°11'0 0.0
2018-Jun-11 11:30N 39°53' W 075°11'0 0.0
2018-Jun-11 10:58N 39°53' W 075°11'0 0.0
2018-Jun-11 10:30N 39°53' W 075°11'0 0.0
2018-Jun-11 09:58N 39°53' W 075°11'0 0.0
2018-Jun-11 09:28N 39°53' W 075°11'0 0.0
2018-Jun-11 08:58N 39°53' W 075°11'0 0.0
2018-Jun-11 08:28N 39°53' W 075°11'0 0.0
2018-Jun-11 07:58N 39°53' W 075°11'0 0.0
2018-Jun-11 07:28N 39°53' W 075°11'0 0.0
2018-Jun-11 07:00N 39°53' W 075°11'2 3.9
2018-Jun-11 06:30N 39°52' W 075°13'4 8.9
2018-Jun-11 06:00N 39°51' W 075°19'4 8.7
2018-Jun-11 05:31N 39°49' W 075°24'5 9.7
2018-Jun-11 05:01N 39°46' W 075°29'3 6.8
2018-Jun-11 04:31N 39°43' W 075°31'0 0.0
2018-Jun-11 04:00N 39°43' W 075°31'0 0.4
2018-Jun-11 03:30N 39°43' W 075°31'0 0.0
2018-Jun-11 03:00N 39°43' W 075°31'0 0.0
2018-Jun-11 02:30N 39°43' W 075°31'0 0.0
2018-Jun-11 02:00N 39°43' W 075°31'0 0.0
2018-Jun-11 01:30N 39°43' W 075°31'0 0.0
2018-Jun-11 01:00N 39°43' W 075°31'0 0.0
2018-Jun-11 00:30N 39°43' W 075°31'0 0.0
2018-Jun-10 23:59N 39°43' W 075°31'0 0.0
2018-Jun-10 23:30N 39°43' W 075°31'0 0.0
2018-Jun-10 23:00N 39°43' W 075°31'0 0.0
2018-Jun-10 22:30N 39°43' W 075°31'0 0.0
2018-Jun-10 22:00N 39°43' W 075°31'0 0.0
2018-Jun-10 21:30N 39°43' W 075°31'0 0.0
2018-Jun-10 21:00N 39°43' W 075°31'0 0.0
2018-Jun-10 20:30N 39°43' W 075°31'0 0.0
2018-Jun-10 19:59N 39°43' W 075°31'0 0.0
2018-Jun-10 19:30N 39°43' W 075°31'0 0.0
2018-Jun-10 18:58N 39°43' W 075°31'0 0.0
2018-Jun-10 18:30N 39°43' W 075°31'0 0.0
2018-Jun-10 18:00N 39°43' W 075°31'0 0.0
2018-Jun-10 17:30N 39°43' W 075°31'0 0.0
2018-Jun-10 17:00N 39°43' W 075°31'0 0.0
2018-Jun-10 16:30N 39°43' W 075°31'  

Dump ship's entire track history